Time;durP1;ratioP1;P1;durP2;ratioP2;P2;SDS_P1;SDS_P2;PMS_P1;PMS_P2;Temp;Humidity;BMP_temperature;BMP_pressure;BME280_temperature;BME280_humidity;BME280_pressure;Samples;Min_cycle;Max_cycle;Signal;HPM_P1;HPM_P2
2023/07/17 00:00:15;;;;;;;4.10;1.88;;;;;;;17.45;100.00;98946.16;5033667;28;20091;-54
2023/07/17 00:02:42;;;;;;;5.28;2.38;;;;;;;17.42;100.00;98952.94;5029048;28;20049;-54
2023/07/17 00:05:09;;;;;;;5.88;2.78;;;;;;;17.44;100.00;98950.75;5052026;22;20064;-62
2023/07/17 00:07:35;;;;;;;9.70;2.60;;;;;;;17.46;100.00;98947.81;5035995;28;20397;-61
2023/07/17 00:10:00;;;;;;;6.30;2.60;;;;;;;17.48;100.00;98951.13;5015073;28;20036;-61
2023/07/17 00:12:27;;;;;;;8.10;2.95;;;;;;;17.55;100.00;98943.56;5009605;28;20088;-62
2023/07/17 00:14:53;;;;;;;6.72;2.47;;;;;;;17.56;100.00;98937.06;5030416;28;20029;-62
2023/07/17 00:17:18;;;;;;;9.40;2.83;;;;;;;17.57;100.00;98944.16;5032535;28;20037;-62
2023/07/17 00:19:53;;;;;;;11.18;2.88;;;;;;;17.51;100.00;98948.72;5032593;28;20021;-62
2023/07/17 00:22:19;;;;;;;5.43;2.75;;;;;;;17.48;100.00;98951.13;5018098;28;20022;-62
2023/07/17 00:24:44;;;;;;;5.03;2.42;;;;;;;17.44;100.00;98958.16;5017506;28;20026;-62
2023/07/17 00:27:10;;;;;;;6.78;2.78;;;;;;;17.38;100.00;98950.94;5047813;28;20028;-62
2023/07/17 00:29:36;;;;;;;7.05;2.63;;;;;;;17.39;100.00;98953.41;5030968;28;20018;-61
2023/07/17 00:32:01;;;;;;;7.20;3.00;;;;;;;17.45;100.00;98957.91;5019860;28;20030;-62
2023/07/17 00:34:27;;;;;;;6.68;2.50;;;;;;;17.49;100.00;98961.81;5011048;28;20090;-61
2023/07/17 00:36:52;;;;;;;7.15;2.47;;;;;;;17.60;100.00;98965.56;5009800;28;20080;-62
2023/07/17 00:39:23;;;;;;;4.93;2.40;;;;;;;17.67;100.00;98959.94;5010610;28;20034;-61
2023/07/17 00:41:50;;;;;;;4.07;2.45;;;;;;;17.70;100.00;98954.81;5009530;28;20029;-62
2023/07/17 00:44:17;;;;;;;5.30;2.08;;;;;;;17.68;100.00;98956.13;5035437;28;20021;-62
2023/07/17 00:46:43;;;;;;;6.07;2.42;;;;;;;17.63;100.00;98954.16;5010548;28;20037;-62
2023/07/17 00:49:10;;;;;;;5.03;2.38;;;;;;;17.56;100.00;98950.72;5011588;28;20025;-63
2023/07/17 00:51:41;;;;;;;4.22;2.15;;;;;;;17.45;100.00;98952.44;5028683;28;20569;-62
2023/07/17 00:54:07;;;;;;;3.67;2.10;;;;;;;17.42;100.00;98958.41;5012233;28;20033;-66
2023/07/17 00:56:33;;;;;;;6.25;2.13;;;;;;;17.40;100.00;98959.72;5013233;28;20462;-66
2023/07/17 00:58:59;;;;;;;6.63;2.50;;;;;;;17.48;100.00;98962.06;5018216;28;20091;-66
2023/07/17 01:01:25;;;;;;;4.85;2.50;;;;;;;17.55;100.00;98950.97;5011083;28;20385;-66
2023/07/17 01:03:55;;;;;;;5.78;2.67;;;;;;;17.59;100.00;98954.88;5026848;28;20117;-66
2023/07/17 01:06:22;;;;;;;6.30;2.38;;;;;;;17.65;100.00;98954.72;5038115;28;20120;-66
2023/07/17 01:08:48;;;;;;;4.00;2.15;;;;;;;17.66;100.00;98964.59;5015559;28;20366;-66
2023/07/17 01:11:14;;;;;;;8.93;2.50;;;;;;;17.66;100.00;98955.56;5030919;28;20029;-66
2023/07/17 01:13:46;;;;;;;5.55;2.33;;;;;;;17.65;100.00;98948.41;5024935;28;20026;-66
2023/07/17 01:16:13;;;;;;;4.80;2.00;;;;;;;17.67;100.00;98963.50;5009862;28;20393;-66
2023/07/17 01:18:38;;;;;;;5.40;2.15;;;;;;;17.67;100.00;98963.50;5011487;28;20038;-66
2023/07/17 01:21:07;;;;;;;7.47;2.30;;;;;;;17.75;100.00;98957.63;5012715;28;20029;-66
2023/07/17 01:23:33;;;;;;;4.40;2.03;;;;;;;17.71;100.00;98964.69;5032512;28;20473;-63
2023/07/17 01:25:58;;;;;;;4.82;2.17;;;;;;;17.75;100.00;98965.84;5013484;28;20033;-62
2023/07/17 01:28:24;;;;;;;9.77;2.42;;;;;;;17.81;100.00;98972.28;5012913;28;20469;-63
2023/07/17 01:30:54;;;;;;;4.80;2.03;;;;;;;17.78;100.00;98967.25;5017487;28;20021;-62
2023/07/17 01:33:20;;;;;;;6.03;2.38;;;;;;;17.75;100.00;98973.22;5015784;28;20037;-63
2023/07/17 01:35:46;;;;;;;7.22;2.30;;;;;;;17.71;100.00;98977.53;5019643;28;20160;-62
2023/07/17 01:38:11;;;;;;;4.45;2.33;;;;;;;17.67;100.00;98981.84;5005071;28;20109;-62
2023/07/17 01:40:36;;;;;;;4.78;2.53;;;;;;;17.61;100.00;98989.13;5011350;28;20470;-62
2023/07/17 01:43:02;;;;;;;4.35;2.53;;;;;;;17.62;100.00;98979.00;5012293;28;20030;-62
2023/07/17 01:45:27;;;;;;;4.78;2.53;;;;;;;17.60;100.00;98984.72;5004975;28;20485;-62
2023/07/17 01:47:53;;;;;;;5.20;2.50;;;;;;;17.57;100.00;98987.94;5024867;28;20418;-62
2023/07/17 01:50:18;;;;;;;5.68;2.72;;;;;;;17.53;100.00;98970.38;5003570;28;20030;-62
2023/07/17 01:52:44;;;;;;;7.75;3.17;;;;;;;17.48;100.00;98973.00;5002020;28;20478;-62
2023/07/17 01:55:09;;;;;;;9.90;3.03;;;;;;;17.43;100.00;98973.72;5011516;28;20029;-62
2023/07/17 01:57:34;;;;;;;6.18;2.50;;;;;;;17.42;100.00;98983.03;5011075;28;20019;-62
2023/07/17 02:00:00;;;;;;;5.18;2.53;;;;;;;17.33;100.00;98975.44;5017386;28;20069;-62
2023/07/17 02:02:25;;;;;;;11.35;2.80;;;;;;;17.27;100.00;98978.06;5041433;28;20025;-61
2023/07/17 02:04:51;;;;;;;4.95;2.25;;;;;;;17.25;100.00;98979.38;5024134;28;20033;-62
2023/07/17 02:07:16;;;;;;;6.55;2.72;;;;;;;17.22;100.00;98963.47;5014270;28;20468;-62
2023/07/17 02:09:42;;;;;;;4.50;2.38;;;;;;;17.16;100.00;98969.88;5006949;28;20025;-62
2023/07/17 02:12:08;;;;;;;5.97;2.60;;;;;;;17.14;100.00;98983.81;5006402;28;20044;-62
2023/07/17 02:14:34;;;;;;;6.30;2.22;;;;;;;17.20;100.00;98982.03;5027792;28;20076;-62
2023/07/17 02:16:59;;;;;;;7.68;2.58;;;;;;;17.19;100.00;98970.25;5019114;28;20025;-62
2023/07/17 02:19:25;;;;;;;6.15;2.83;;;;;;;17.22;100.00;98971.69;5017580;28;20080;-64
2023/07/17 02:21:50;;;;;;;5.05;2.75;;;;;;;17.28;100.00;98979.72;5017270;28;20484;-62
2023/07/17 02:24:16;;;;;;;4.47;2.63;;;;;;;17.33;100.00;98975.44;5020388;28;20033;-62
2023/07/17 02:26:42;;;;;;;6.47;2.80;;;;;;;17.33;100.00;98973.53;5023348;28;20028;-62
2023/07/17 02:29:07;;;;;;;4.63;2.28;;;;;;;17.30;100.00;98983.06;5008517;28;20042;-61
2023/07/17 02:31:33;;;;;;;6.18;2.63;;;;;;;17.33;100.00;98992.69;5013230;28;20025;-62
2023/07/17 02:33:58;;;;;;;6.45;2.55;;;;;;;17.32;100.00;98991.03;5016640;28;20567;-62
2023/07/17 02:36:23;;;;;;;5.60;2.05;;;;;;;17.34;100.00;98993.50;5023685;28;20026;-62
2023/07/17 02:38:49;;;;;;;4.72;2.60;;;;;;;17.34;100.00;98990.75;5004306;28;20034;-62
2023/07/17 02:41:14;;;;;;;4.78;2.60;;;;;;;17.30;100.00;98999.47;5027700;28;20065;-62
2023/07/17 02:43:40;;;;;;;6.22;3.00;;;;;;;17.26;100.00;99002.91;5008051;28;20571;-62
2023/07/17 02:46:05;;;;;;;7.50;2.92;;;;;;;17.17;100.00;99005.22;5021485;28;20018;-62
2023/07/17 02:48:31;;;;;;;7.28;3.10;;;;;;;17.18;100.00;99006.03;5022934;28;20061;-62
2023/07/17 02:50:56;;;;;;;7.60;3.55;;;;;;;17.18;100.00;99006.03;5012530;28;20083;-61
2023/07/17 02:53:22;;;;;;;4.65;2.50;;;;;;;17.14;100.00;99011.16;5011175;28;20974;-62
2023/07/17 02:55:47;;;;;;;9.80;3.13;;;;;;;17.05;100.00;99024.34;5031687;28;20034;-62
2023/07/17 02:58:17;;;;;;;5.40;3.20;;;;;;;17.03;100.00;99020.22;5009869;28;20041;-61
2023/07/17 03:00:43;;;;;;;6.30;2.80;;;;;;;16.96;100.00;99023.06;5016175;28;20033;-61
2023/07/17 03:03:08;;;;;;;12.82;3.20;;;;;;;16.91;100.00;99024.88;5020687;28;20033;-62
2023/07/17 03:05:37;;;;;;;6.45;2.58;;;;;;;16.97;100.00;99021.16;5002296;28;20025;-62
2023/07/17 03:08:03;;;;;;;11.85;3.00;;;;;;;16.97;100.00;99032.91;5025755;28;20053;-61
2023/07/17 03:10:29;;;;;;;5.55;2.20;;;;;;;16.98;100.00;99029.13;5024783;28;20095;-62
2023/07/17 03:12:55;;;;;;;7.28;2.60;;;;;;;16.97;100.00;99037.56;5018760;28;20026;-62
2023/07/17 03:15:20;;;;;;;15.98;3.08;;;;;;;16.93;100.00;99034.50;5006670;28;20034;-61
2023/07/17 03:17:45;;;;;;;4.50;2.60;;;;;;;16.98;100.00;99045.53;5009143;28;20042;-62
2023/07/17 03:20:11;;;;;;;7.13;3.03;;;;;;;16.98;100.00;99039.25;5021628;28;20050;-62
2023/07/17 03:22:37;;;;;;;5.82;2.88;;;;;;;17.03;100.00;99045.66;5041048;28;20080;-62
2023/07/17 03:25:07;;;;;;;5.75;2.70;;;;;;;17.01;100.00;99039.59;5002614;28;20109;-61
2023/07/17 03:27:33;;;;;;;4.60;2.47;;;;;;;17.00;100.00;99031.59;5011616;28;20366;-64
2023/07/17 03:29:58;;;;;;;6.38;2.58;;;;;;;17.09;100.00;99041.94;5007199;28;20061;-61
2023/07/17 03:32:24;;;;;;;7.68;2.72;;;;;;;17.04;100.00;99038.28;5044227;28;20527;-61
2023/07/17 03:34:49;;;;;;;6.68;2.50;;;;;;;17.02;100.00;99048.59;5018520;28;20096;-62
2023/07/17 03:37:15;;;;;;;8.35;2.63;;;;;;;17.03;100.00;99039.34;5017205;28;20124;-62
2023/07/17 03:39:40;;;;;;;8.07;2.72;;;;;;;17.02;100.00;99046.69;5017132;28;20034;-61
2023/07/17 03:42:10;;;;;;;6.15;2.78;;;;;;;17.07;100.00;99048.72;5032519;28;20063;-61
2023/07/17 03:44:39;;;;;;;8.27;2.90;;;;;;;17.04;100.00;99047.31;5012435;28;20044;-61
2023/07/17 03:47:06;;;;;;;7.82;2.95;;;;;;;16.96;100.00;99052.31;5016387;28;20053;-61
2023/07/17 03:49:31;;;;;;;6.75;3.25;;;;;;;16.92;100.00;99046.47;5011871;28;20040;-61
2023/07/17 03:51:59;;;;;;;4.43;2.88;;;;;;;16.91;100.00;99046.72;5015460;28;20552;-62
2023/07/17 03:54:25;;;;;;;7.60;3.00;;;;;;;16.90;100.00;99042.31;5028719;28;20034;-61
2023/07/17 03:56:50;;;;;;;5.90;2.53;;;;;;;16.92;100.00;99051.94;5029484;28;20026;-62
2023/07/17 03:59:16;;;;;;;6.90;3.65;;;;;;;16.89;100.00;99048.84;5010529;28;20152;-61
2023/07/17 04:01:41;;;;;;;7.53;3.33;;;;;;;16.93;100.00;99050.06;5032623;28;20037;-62
2023/07/17 04:04:07;;;;;;;8.25;2.70;;;;;;;16.92;100.00;99051.09;5012735;28;20057;-61
2023/07/17 04:06:32;;;;;;;11.27;3.13;;;;;;;16.68;100.00;99051.09;5015521;28;20076;-63
2023/07/17 04:08:58;;;;;;;10.20;2.47;;;;;;;16.72;100.00;99052.28;5007301;28;20041;-62
2023/07/17 04:11:24;;;;;;;6.70;2.75;;;;;;;16.70;100.00;99059.88;5045990;28;20021;-62
2023/07/17 04:13:50;;;;;;;5.00;2.90;;;;;;;16.71;100.00;99056.06;5027221;28;20029;-62
2023/07/17 04:16:18;;;;;;;9.98;3.00;;;;;;;16.62;100.00;99057.50;5023329;28;20048;-61
2023/07/17 04:18:43;;;;;;;6.00;3.00;;;;;;;16.56;100.00;99056.56;5026840;28;20042;-61
2023/07/17 04:21:09;;;;;;;6.80;3.00;;;;;;;16.64;100.00;99058.94;5019724;28;20103;-61
2023/07/17 04:23:34;;;;;;;6.35;2.47;;;;;;;16.65;100.00;99057.03;5025495;28;20030;-61
2023/07/17 04:26:00;;;;;;;7.50;2.78;;;;;;;16.72;100.00;99063.22;5014816;28;20462;-61
2023/07/17 04:28:25;;;;;;;9.07;2.80;;;;;;;16.79;100.00;99065.84;5014453;28;20101;-61
2023/07/17 04:30:51;;;;;;;8.73;2.90;;;;;;;16.85;100.00;99067.66;5011376;28;20029;-61
2023/07/17 04:33:16;;;;;;;6.72;2.80;;;;;;;16.91;100.00;99071.31;5042852;28;20504;-61
2023/07/17 04:35:41;;;;;;;6.85;2.50;;;;;;;17.00;100.00;99070.72;5019807;28;20056;-61
2023/07/17 04:38:07;;;;;;;8.82;2.78;;;;;;;17.00;100.00;99078.06;5027834;28;20084;-61
2023/07/17 04:40:32;;;;;;;9.40;2.60;;;;;;;17.15;100.00;99072.97;5010514;28;20088;-61
2023/07/17 04:43:02;;;;;;;4.05;2.60;;;;;;;17.24;100.00;99074.28;5034445;28;20116;-61
2023/07/17 04:45:27;;;;;;;;;;;;;;;17.35;100.00;99077.22;5031648;28;20034;-61
2023/07/17 04:47:53;;;;;;;5.75;2.35;;;;;;;17.43;100.00;99074.94;5038882;28;19928;-60
2023/07/17 04:50:18;;;;;;;3.63;2.00;;;;;;;17.60;100.00;99085.13;5011821;28;20406;-61
2023/07/17 04:52:44;;;;;;;7.32;2.78;;;;;;;17.67;100.00;99086.66;5015053;28;20060;-61
2023/07/17 04:55:09;;;;;;;10.55;2.85;;;;;;;17.78;100.00;99084.13;5008641;28;20052;-62
2023/07/17 04:57:35;;;;;;;5.53;2.72;;;;;;;17.93;100.00;99087.19;5029565;28;20029;-62
2023/07/17 05:00:00;;;;;;;6.00;2.70;;;;;;;18.02;100.00;99080.22;5027696;28;20068;-61
2023/07/17 05:02:26;;;;;;;9.13;3.80;;;;;;;18.05;100.00;99077.03;5008053;28;20030;-61
2023/07/17 05:04:51;;;;;;;5.75;2.60;;;;;;;18.27;100.00;99076.31;5014737;28;20117;-61
2023/07/17 05:07:17;;;;;;;5.05;2.25;;;;;;;18.45;100.00;99081.56;5003826;28;20022;-62
2023/07/17 05:09:42;;;;;;;10.38;2.65;;;;;;;18.69;100.00;99076.75;5009826;28;20085;-61
2023/07/17 05:12:08;;;;;;;5.88;2.50;;;;;;;18.97;100.00;99070.38;5036637;28;20124;-62
2023/07/17 05:14:33;;;;;;;8.88;2.65;;;;;;;19.30;100.00;99065.88;5012791;28;20018;-61
2023/07/17 05:16:59;;;;;;;5.47;2.88;;;;;;;19.27;100.00;99066.38;5008337;28;20517;-61
2023/07/17 05:19:24;;;;;;;4.45;2.78;;;;;;;19.32;100.00;99074.69;5037171;28;20104;-65
2023/07/17 05:21:50;;;;;;;8.82;2.97;;;;;;;19.22;100.00;99069.88;5032657;28;20052;-70
2023/07/17 05:24:15;;;;;;;6.40;2.70;;;;;;;19.21;100.00;99070.97;5034449;28;20038;-62
2023/07/17 05:26:41;;;;;;;5.93;2.90;;;;;;;19.26;100.00;99070.22;5014006;28;20063;-62
2023/07/17 05:29:06;;;;;;;5.82;2.75;;;;;;;19.36;100.00;99062.13;5026883;28;20033;-63
2023/07/17 05:31:31;;;;;;;5.30;2.58;;;;;;;19.62;100.00;99070.66;5008921;28;20086;-61
2023/07/17 05:33:57;;;;;;;3.78;2.38;;;;;;;19.80;100.00;99075.84;5030260;28;20045;-61
2023/07/17 05:36:23;;;;;;;6.43;2.80;;;;;;;19.99;100.00;99065.38;5030534;28;20465;-61
2023/07/17 05:38:48;;;;;;;5.65;2.60;;;;;;;19.99;100.00;99065.38;5028417;28;20026;-61
2023/07/17 05:41:13;;;;;;;4.40;2.35;;;;;;;20.18;100.00;99071.31;5007278;28;20500;-63
2023/07/17 05:43:39;;;;;;;4.25;2.15;;;;;;;20.34;100.00;99070.38;5021778;28;20028;-61
2023/07/17 05:46:04;;;;;;;7.10;2.08;;;;;;;20.55;100.00;99063.16;5008851;28;20026;-61
2023/07/17 05:48:30;;;;;;;6.57;2.60;;;;;;;20.94;100.00;99056.59;5042392;28;20389;-62
2023/07/17 05:50:55;;;;;;;4.68;2.00;;;;;;;21.36;100.00;99059.31;5012426;28;20492;-61
2023/07/17 05:53:21;;;;;;;6.75;2.30;;;;;;;21.48;100.00;99072.03;5036355;28;20034;-62
2023/07/17 05:55:47;;;;;;;4.70;1.85;;;;;;;21.63;100.00;99064.66;5011733;28;20393;-62
2023/07/17 05:58:12;;;;;;;9.50;2.00;;;;;;;21.56;100.00;99071.53;5020269;28;20034;-62
2023/07/17 06:00:38;;;;;;;8.27;1.95;;;;;;;21.65;100.00;99065.22;5007912;28;20044;-61
2023/07/17 06:03:03;;;;;;;4.90;2.00;;;;;;;22.02;100.00;99078.03;5008944;28;20038;-62
2023/07/17 06:05:29;;;;;;;9.70;2.63;;;;;;;22.19;100.00;99061.28;5054673;22;20068;-71
2023/07/17 06:07:54;;;;;;;9.02;2.10;;;;;;;22.60;100.00;99075.09;5073447;28;20055;-71
2023/07/17 06:10:20;;;;;;;8.75;1.90;;;;;;;22.75;100.00;99071.50;5054631;28;20024;-79
2023/07/17 06:12:45;;;;;;;5.88;2.45;;;;;;;23.05;100.00;99072.59;5056247;28;20090;-77
2023/07/17 06:15:13;;;;;;;7.68;2.10;;;;;;;23.02;100.00;99079.50;5046909;28;20036;-77
2023/07/17 06:17:39;;;;;;;7.18;2.63;;;;;;;22.80;100.00;99081.72;5032895;28;20021;-77
2023/07/17 06:20:06;;;;;;;8.75;2.67;;;;;;;22.56;100.00;99093.31;5035179;28;20419;-74
2023/07/17 06:22:31;;;;;;;4.97;2.28;;;;;;;22.30;100.00;99081.44;5027455;28;20025;-77
2023/07/17 06:24:57;;;;;;;5.05;2.38;;;;;;;22.29;100.00;99077.00;5043293;28;20049;-75
2023/07/17 06:27:22;;;;;;;5.57;2.47;;;;;;;22.16;100.00;99088.53;5041216;28;20024;-75
2023/07/17 06:29:47;;;;;;;6.75;2.22;;;;;;;22.52;100.00;99090.25;5045441;28;20025;-75
2023/07/17 06:32:13;;;;;;;9.43;2.30;;;;;;;22.47;100.00;99101.28;5029587;28;20903;-75
2023/07/17 06:34:41;;;;;;;13.57;2.50;;;;;;;22.69;100.00;99094.69;5047803;28;20098;-75
2023/07/17 06:37:07;;;;;;;6.47;2.22;;;;;;;22.69;100.00;99091.94;5026454;28;20017;-75
2023/07/17 06:39:32;;;;;;;11.50;2.60;;;;;;;22.93;100.00;99098.53;5031592;28;20051;-75
2023/07/17 06:41:58;;;;;;;7.78;2.40;;;;;;;22.88;100.00;99108.75;5030617;28;20029;-75
2023/07/17 06:44:24;;;;;;;10.50;2.13;;;;;;;23.43;100.00;99117.25;5034542;28;20095;-75
2023/07/17 06:46:49;;;;;;;6.47;2.10;;;;;;;24.06;100.00;99112.06;5042883;28;20590;-76
2023/07/17 06:49:15;;;;;;;7.10;2.10;;;;;;;23.91;100.00;99106.59;5030042;28;20446;-74
2023/07/17 06:51:40;;;;;;;4.70;1.85;;;;;;;24.05;100.00;99096.56;5043396;28;20428;-74
2023/07/17 06:54:05;;;;;;;8.13;2.20;;;;;;;26.36;100.00;99103.47;5043679;28;20021;-75
2023/07/17 06:56:31;;;;;;;5.70;2.22;;;;;;;28.94;97.03;99099.75;5051696;28;20083;-74
2023/07/17 06:58:56;;;;;;;4.05;2.03;;;;;;;31.62;78.69;99099.66;5051672;28;20111;-72
2023/07/17 07:01:21;;;;;;;6.10;2.28;;;;;;;32.37;69.91;99107.47;5049878;28;20075;-72
2023/07/17 07:03:47;;;;;;;5.53;1.90;;;;;;;32.97;65.08;99094.94;5041694;28;20035;-78
2023/07/17 07:06:12;;;;;;;5.38;2.33;;;;;;;33.48;60.82;99098.31;5059955;28;20051;-78
2023/07/17 07:08:37;;;;;;;6.18;1.95;;;;;;;34.11;57.75;99092.41;5037992;28;20025;-73
2023/07/17 07:11:04;;;;;;;9.02;2.17;;;;;;;35.29;52.92;99090.25;5043269;28;20037;-72
2023/07/17 07:13:30;;;;;;;4.95;1.88;;;;;;;35.01;50.08;99095.06;5015321;28;20044;-72
2023/07/17 07:15:55;;;;;;;4.85;1.83;;;;;;;36.23;49.47;99081.28;5049949;28;20112;-72
2023/07/17 07:18:21;;;;;;;6.50;2.00;;;;;;;35.68;48.42;99081.16;5038458;28;20033;-77
2023/07/17 07:20:49;;;;;;;5.35;1.77;;;;;;;36.69;44.88;99085.13;5034343;28;20163;-72
2023/07/17 07:23:15;;;;;;;6.68;1.85;;;;;;;36.95;44.12;99080.78;5024278;28;20444;-72
2023/07/17 07:25:41;;;;;;;5.65;1.67;;;;;;;37.49;42.57;99093.88;5042336;28;20024;-73
2023/07/17 07:28:07;;;;;;;7.82;2.10;;;;;;;37.15;43.50;99096.50;5037022;28;20064;-73
2023/07/17 07:30:32;;;;;;;5.05;1.67;;;;;;;37.97;40.43;99085.03;5029413;28;20465;-73
2023/07/17 07:32:57;;;;;;;4.28;1.90;;;;;;;39.09;39.12;99086.09;5041388;28;20492;-72
2023/07/17 07:35:23;;;;;;;4.95;2.08;;;;;;;39.80;38.08;99076.66;5040857;28;20548;-73
2023/07/17 07:37:49;;;;;;;4.68;2.10;;;;;;;39.50;37.66;99083.28;5036154;28;20035;-72
2023/07/17 07:40:15;;;;;;;7.15;2.22;;;;;;;40.36;36.22;99086.78;5041364;28;20029;-73
2023/07/17 07:42:42;;;;;;;4.07;1.70;;;;;;;40.13;36.31;99084.19;5037901;28;20032;-73
2023/07/17 07:45:09;;;;;;;5.80;1.88;;;;;;;39.07;36.61;99088.53;5049511;28;20111;-73
2023/07/17 07:47:35;;;;;;;6.83;2.20;;;;;;;40.64;34.83;99083.25;5042074;28;20032;-73
2023/07/17 07:50:00;;;;;;;6.07;2.22;;;;;;;40.37;33.90;99073.41;5023272;28;20033;-73
2023/07/17 07:52:26;;;;;;;5.00;2.33;;;;;;;38.74;35.26;99087.31;5047947;28;20021;-72
2023/07/17 07:54:51;;;;;;;7.72;2.45;;;;;;;39.12;35.36;99087.34;5021225;28;20525;-73
2023/07/17 07:57:17;;;;;;;5.35;2.25;;;;;;;39.72;34.18;99086.28;5031261;28;20360;-73
2023/07/17 07:59:42;;;;;;;6.88;2.45;;;;;;;39.78;34.52;99076.28;5023936;28;20516;-72
2023/07/17 08:02:07;;;;;;;8.73;2.30;;;;;;;40.74;33.64;99088.19;5045578;28;20442;-74
2023/07/17 08:04:33;;;;;;;7.00;2.45;;;;;;;42.31;31.31;99092.34;5046792;28;20261;-73
2023/07/17 08:06:58;;;;;;;4.97;2.05;;;;;;;42.16;30.75;99091.59;5036947;28;20032;-73
2023/07/17 08:09:23;;;;;;;5.97;2.00;;;;;;;42.63;30.55;99097.13;5045117;28;20021;-73
2023/07/17 08:11:49;;;;;;;6.18;2.40;;;;;;;38.67;32.83;99094.88;5024901;28;20032;-73
2023/07/17 08:14:14;;;;;;;10.60;2.70;;;;;;;40.22;31.58;99093.19;5024800;28;20394;-73
2023/07/17 08:16:40;;;;;;;4.90;2.40;;;;;;;40.22;32.06;99098.84;5048505;28;20078;-73
2023/07/17 08:19:05;;;;;;;5.70;2.13;;;;;;;41.78;29.89;99082.69;5032449;28;20099;-73
2023/07/17 08:21:31;;;;;;;5.75;2.80;;;;;;;41.03;30.10;99091.13;5046699;28;20081;-73
2023/07/17 08:23:56;;;;;;;7.40;2.70;;;;;;;42.36;29.36;99099.69;5030777;28;20045;-73
2023/07/17 08:26:21;;;;;;;7.10;2.47;;;;;;;41.64;29.25;99077.03;5045140;28;20323;-81
2023/07/17 08:28:47;;;;;;;6.13;2.72;;;;;;;41.05;28.86;99096.38;5028490;28;20024;-77
2023/07/17 08:31:12;;;;;;;5.03;2.70;;;;;;;41.04;28.91;99089.88;5048088;28;20032;-75
2023/07/17 08:33:38;;;;;;;7.55;2.95;;;;;;;39.67;29.29;99091.13;5042221;28;20057;-74
2023/07/17 08:36:04;;;;;;;4.32;2.22;;;;;;;41.06;28.32;99100.81;5041815;28;20061;-75
2023/07/17 08:38:29;;;;;;;6.75;2.78;;;;;;;41.62;28.06;99095.69;5033389;28;20061;-80
2023/07/17 08:40:54;;;;;;;5.15;2.90;;;;;;;41.96;27.56;99093.25;5039368;28;20037;-78
2023/07/17 08:43:23;;;;;;;3.60;2.42;;;;;;;40.64;27.84;99102.28;5045418;28;20060;-73
2023/07/17 08:45:51;;;;;;;5.25;2.33;;;;;;;40.65;28.25;99104.75;5051575;28;20569;-73
2023/07/17 08:48:17;;;;;;;7.28;3.13;;;;;;;38.43;30.06;99094.19;5045687;28;20032;-72
2023/07/17 08:50:42;;;;;;;6.93;2.33;;;;;;;37.70;30.75;99102.75;5045238;28;20053;-73
2023/07/17 08:53:10;;;;;;;7.55;2.92;;;;;;;38.40;30.26;99092.09;5045243;28;20419;-72
2023/07/17 08:55:36;;;;;;;6.78;2.72;;;;;;;40.94;28.54;99087.84;5045356;28;20471;-76
2023/07/17 08:58:05;;;;;;;6.15;2.83;;;;;;;40.06;29.23;99098.31;5047185;28;20036;-71
2023/07/17 09:00:32;;;;;;;6.78;2.50;;;;;;;42.21;28.05;99091.19;5050854;28;20036;-71
2023/07/17 09:02:57;;;;;;;7.07;2.60;;;;;;;40.43;29.34;99095.31;5046962;28;20025;-71
2023/07/17 09:05:23;;;;;;;6.60;2.65;;;;;;;39.35;30.30;99093.66;5038524;28;20067;-71
2023/07/17 09:07:48;;;;;;;5.47;2.22;;;;;;;40.16;29.69;99096.75;5024203;28;20061;-71
2023/07/17 09:10:17;;;;;;;5.68;2.42;;;;;;;40.49;28.62;99098.59;5048966;28;20309;-71
2023/07/17 09:12:42;;;;;;;5.22;2.20;;;;;;;40.94;27.52;99097.16;5047057;28;20078;-76
2023/07/17 09:15:09;;;;;;;4.70;2.35;;;;;;;38.30;29.22;99096.41;5049013;28;20025;-76
2023/07/17 09:17:34;;;;;;;6.72;2.53;;;;;;;35.74;32.29;99091.81;5044479;28;20099;-76
2023/07/17 09:20:08;;;;;;;6.50;2.40;;;;;;;33.63;33.43;99096.84;5029565;28;20482;-77
2023/07/17 09:22:34;;;;;;;7.95;2.85;;;;;;;33.70;32.95;99082.25;5035914;28;20113;-76
2023/07/17 09:25:00;;;;;;;5.15;2.80;;;;;;;34.23;31.78;99089.56;5029801;28;20107;-76
2023/07/17 09:27:25;;;;;;;4.07;2.30;;;;;;;33.62;33.33;99089.63;5030833;28;20029;-77
2023/07/17 09:29:50;;;;;;;5.75;2.30;;;;;;;35.19;31.55;99073.91;5039538;28;20481;-77
2023/07/17 09:32:18;;;;;;;5.95;2.80;;;;;;;37.24;30.88;99082.16;5046268;28;20025;-74
2023/07/17 09:34:49;;;;;;;4.43;2.50;;;;;;;35.70;31.86;99082.44;5046972;28;20056;-74
2023/07/17 09:37:15;;;;;;;3.42;2.22;;;;;;;35.24;32.16;99089.66;5035797;28;20046;-74
2023/07/17 09:39:40;;;;;;;5.18;2.33;;;;;;;34.25;32.90;99089.22;5042244;28;20091;-74
2023/07/17 09:42:22;;;;;;;6.20;2.65;;;;;;;31.52;35.74;99086.88;5040161;28;20041;-73
2023/07/17 09:44:49;;;;;;;6.90;2.50;;;;;;;34.31;33.58;99089.81;5044458;28;20099;-74
2023/07/17 09:47:14;;;;;;;5.97;2.83;;;;;;;35.96;30.91;99093.13;5034141;28;20029;-74
2023/07/17 09:49:40;;;;;;;6.60;2.53;;;;;;;33.34;33.94;99095.03;5041294;28;20035;-74
2023/07/17 09:52:06;;;;;;;6.32;2.65;;;;;;;30.81;37.07;99090.16;5038687;28;20490;-74
2023/07/17 09:54:33;;;;;;;5.57;2.50;;;;;;;31.32;36.69;99094.00;5046150;28;20027;-73
2023/07/17 09:56:59;;;;;;;6.45;2.78;;;;;;;33.23;34.63;99094.69;5034286;28;20072;-73
2023/07/17 09:59:31;;;;;;;4.97;2.60;;;;;;;34.90;32.83;99095.59;5044127;28;20052;-74
2023/07/17 10:01:59;;;;;;;5.35;2.70;;;;;;;37.97;30.75;99088.69;5033013;28;20512;-74
2023/07/17 10:04:42;;;;;;;5.10;2.55;;;;;;;37.76;29.55;99089.13;5036640;28;20566;-74
2023/07/17 10:07:09;;;;;;;7.75;2.72;;;;;;;39.86;28.55;99078.75;5048149;28;20033;-74
2023/07/17 10:09:36;;;;;;;11.55;3.38;;;;;;;38.45;29.38;99103.09;5043869;28;20047;-74
2023/07/17 10:12:03;;;;;;;6.97;2.50;;;;;;;36.97;30.29;99095.31;5047317;28;20029;-74
2023/07/17 10:14:30;;;;;;;5.50;2.93;;;;;;;39.10;30.03;99089.75;5025580;28;20028;-74
2023/07/17 10:16:55;;;;;;;5.85;2.97;;;;;;;40.99;28.29;99086.63;5026057;28;20288;-74
2023/07/17 10:19:20;;;;;;;4.97;2.70;;;;;;;42.24;27.20;99098.88;5042286;28;20040;-74
2023/07/17 10:21:57;;;;;;;4.97;2.65;;;;;;;40.63;27.38;99075.13;5038154;28;20471;-74
2023/07/17 10:24:24;;;;;;;5.53;2.35;;;;;;;39.97;28.08;99083.69;5042645;28;20044;-74
2023/07/17 10:26:50;;;;;;;7.20;2.95;;;;;;;36.07;31.37;99089.78;5039936;28;20013;-74
2023/07/17 10:29:29;;;;;;;5.43;2.67;;;;;;;36.33;31.69;99081.50;5041591;28;20036;-74
2023/07/17 10:31:57;;;;;;;6.30;2.63;;;;;;;33.72;34.02;99080.72;5050616;28;20427;-74
2023/07/17 10:34:53;;;;;;;7.32;2.78;;;;;;;33.77;34.95;99076.84;5047356;28;20430;-74
2023/07/17 10:37:30;;;;;;;5.53;2.70;;;;;;;33.36;36.33;99079.50;5040254;28;20048;-74
2023/07/17 10:40:26;;;;;;;5.28;2.85;;;;;;;32.57;36.44;99080.63;5044982;28;20030;-74
2023/07/17 10:42:54;;;;;;;5.75;2.83;;;;;;;33.66;36.12;99070.88;5044547;28;20132;-74
2023/07/17 10:45:19;;;;;;;5.72;2.65;;;;;;;37.36;32.15;99067.84;5041401;28;20121;-74
2023/07/17 10:47:49;;;;;;;4.72;2.78;;;;;;;39.14;30.59;99054.63;5046413;28;20529;-74
2023/07/17 10:50:17;;;;;;;5.25;2.67;;;;;;;40.11;28.84;99061.09;5050825;28;20024;-74
2023/07/17 10:52:42;;;;;;;6.32;2.83;;;;;;;41.29;27.87;99060.75;5038276;28;20089;-74
2023/07/17 10:55:08;;;;;;;4.30;2.83;;;;;;;40.67;28.83;99056.16;5029063;28;20086;-74
2023/07/17 10:57:33;;;;;;;4.70;2.50;;;;;;;40.49;29.59;99050.38;5043520;28;20731;-74
2023/07/17 10:59:59;;;;;;;8.00;2.90;;;;;;;37.34;31.47;99067.44;5034587;28;20518;-73
2023/07/17 11:02:28;;;;;;;7.47;3.05;;;;;;;38.46;31.07;99058.69;5041617;28;20533;-74
2023/07/17 11:04:54;;;;;;;5.13;2.63;;;;;;;37.98;32.35;99053.56;5021388;28;20034;-74
2023/07/17 11:07:20;;;;;;;5.75;2.75;;;;;;;40.23;30.36;99043.78;5048732;28;20541;-74
2023/07/17 11:09:45;;;;;;;3.95;2.38;;;;;;;41.18;28.98;99050.19;5043423;28;20026;-73
2023/07/17 11:12:10;;;;;;;4.72;2.45;;;;;;;42.16;27.56;99042.44;5039624;28;20048;-74
2023/07/17 11:14:36;;;;;;;5.82;2.67;;;;;;;41.58;27.36;99038.88;5040663;28;20033;-74
2023/07/17 11:17:01;;;;;;;5.63;2.42;;;;;;;40.04;29.11;99036.38;5037036;28;20376;-74
2023/07/17 11:19:26;;;;;;;4.30;2.30;;;;;;;40.90;29.36;99050.09;5041365;28;20402;-74
2023/07/17 11:21:54;;;;;;;5.77;2.60;;;;;;;42.57;26.81;99050.44;5047525;28;20467;-74
2023/07/17 11:24:20;;;;;;;5.47;2.65;;;;;;;42.27;27.47;99046.06;5020897;28;20275;-74